Time;durP1;ratioP1;P1;durP2;ratioP2;P2;SDS_P1;SDS_P2;PMS_P1;PMS_P2;Temp;Humidity;BMP_temperature;BMP_pressure;BME280_temperature;BME280_humidity;BME280_pressure;Samples;Min_cycle;Max_cycle;Signal;HPM_P1;HPM_P2
2024/01/04 04:02:13;;;;;;;0.90;0.40;;;24.00;33.30;;;;;;5122713;22;45810;-85
2024/01/04 04:04:39;;;;;;;1.05;0.40;;;24.00;33.40;;;;;;4924413;28;45488;-83
2024/01/04 04:07:05;;;;;;;0.88;0.20;;;24.00;33.40;;;;;;4920898;28;45482;-84
2024/01/04 04:09:31;;;;;;;1.00;0.40;;;24.00;33.40;;;;;;4966612;28;45434;-84
2024/01/04 04:11:57;;;;;;;0.73;0.30;;;24.00;33.40;;;;;;4928821;28;46458;-84
2024/01/04 04:14:23;;;;;;;0.80;0.32;;;24.10;33.50;;;;;;4943622;28;45554;-84
2024/01/04 04:16:51;;;;;;;0.77;0.30;;;24.00;33.40;;;;;;4932835;28;59468;-84
2024/01/04 04:19:17;;;;;;;0.47;0.32;;;24.00;33.40;;;;;;4953537;28;45667;-84
2024/01/04 04:21:46;;;;;;;0.90;0.40;;;24.00;33.40;;;;;;4957060;28;45285;-84
2024/01/04 04:24:12;;;;;;;0.80;0.30;;;24.00;33.50;;;;;;4907554;28;45514;-84
2024/01/04 04:26:38;;;;;;;1.33;0.40;;;24.00;33.50;;;;;;4951893;28;45849;-83
2024/01/04 04:29:03;;;;;;;2.30;0.40;;;24.00;33.50;;;;;;4973482;28;45242;-84
2024/01/04 04:31:29;;;;;;;0.50;0.30;;;24.00;33.50;;;;;;4954515;28;46217;-83
2024/01/04 04:33:59;;;;;;;0.80;0.40;;;23.90;33.50;;;;;;4962820;28;44996;-82
2024/01/04 04:36:28;;;;;;;0.90;0.32;;;24.00;33.50;;;;;;4918385;28;45336;-85
2024/01/04 04:39:02;;;;;;;0.60;0.30;;;23.90;33.50;;;;;;4939098;28;46723;-84
2024/01/04 04:41:28;;;;;;;1.00;0.50;;;24.00;33.50;;;;;;4963779;28;47266;-85
2024/01/04 04:43:54;;;;;;;0.63;0.30;;;24.00;33.50;;;;;;4942440;28;45708;-84
2024/01/04 04:46:21;;;;;;;1.27;0.40;;;23.90;33.50;;;;;;4965332;28;45174;-84
2024/01/04 04:48:46;;;;;;;1.27;0.40;;;23.90;33.50;;;;;;4955527;28;45498;-82
2024/01/04 04:51:12;;;;;;;0.57;0.30;;;23.90;33.60;;;;;;4940589;28;46888;-84
2024/01/04 04:53:38;;;;;;;0.90;0.40;;;23.90;33.60;;;;;;4927998;28;45494;-84
2024/01/04 04:56:05;;;;;;;0.77;0.30;;;23.90;33.60;;;;;;4953887;28;46564;-84
2024/01/04 04:58:31;;;;;;;0.90;0.40;;;23.90;33.60;;;;;;4942086;28;46239;-84
2024/01/04 05:00:56;;;;;;;1.03;0.37;;;23.90;33.60;;;;;;4941746;28;45786;-84
2024/01/04 05:03:23;;;;;;;0.60;0.30;;;23.90;33.60;;;;;;4954710;28;45029;-83
2024/01/04 05:05:49;;;;;;;0.50;0.30;;;23.90;33.60;;;;;;4953461;28;45274;-83
2024/01/04 05:08:16;;;;;;;0.98;0.38;;;23.80;33.60;;;;;;4956316;28;45628;-84
2024/01/04 05:10:42;;;;;;;0.60;0.35;;;23.80;33.60;;;;;;4937811;28;46404;-84
2024/01/04 05:13:07;;;;;;;1.10;0.47;;;23.80;33.60;;;;;;4968986;28;45588;-84
2024/01/04 05:15:34;;;;;;;0.53;0.30;;;23.90;33.70;;;;;;4935384;28;45478;-83
2024/01/04 05:17:59;;;;;;;0.70;0.40;;;23.80;33.70;;;;;;4920525;28;45378;-83
2024/01/04 05:20:26;;;;;;;1.00;0.40;;;23.80;33.70;;;;;;4932087;28;45422;-84
2024/01/04 05:22:52;;;;;;;1.10;0.50;;;23.80;33.70;;;;;;4938058;28;45284;-84
2024/01/04 05:25:18;;;;;;;0.88;0.32;;;23.80;33.70;;;;;;4927224;28;45675;-84
2024/01/04 05:27:44;;;;;;;0.98;0.38;;;23.80;33.70;;;;;;4910035;28;45135;-84
2024/01/04 05:30:10;;;;;;;0.98;0.40;;;23.80;33.70;;;;;;4905582;28;46298;-84
2024/01/04 05:32:36;;;;;;;1.07;0.30;;;23.70;33.80;;;;;;4912028;28;45601;-84
2024/01/04 05:35:09;;;;;;;1.08;0.30;;;23.70;33.80;;;;;;4960941;28;44713;-84
2024/01/04 05:37:35;;;;;;;3.10;0.70;;;23.70;33.80;;;;;;4931796;28;45481;-84
2024/01/04 05:40:05;;;;;;;1.02;0.30;;;23.70;33.70;;;;;;4898168;28;47284;-83
2024/01/04 05:42:31;;;;;;;0.82;0.43;;;23.80;33.80;;;;;;4908682;28;45564;-84
2024/01/04 05:44:57;;;;;;;0.60;0.40;;;23.70;33.80;;;;;;4953122;28;45261;-84
2024/01/04 05:47:23;;;;;;;0.90;0.30;;;23.70;33.70;;;;;;4898950;28;45274;-83
2024/01/04 05:49:49;;;;;;;1.10;0.40;;;23.70;33.80;;;;;;4933168;28;45622;-84
2024/01/04 05:52:15;;;;;;;0.93;0.40;;;23.70;33.80;;;;;;4927812;28;44844;-83
2024/01/04 05:54:41;;;;;;;0.90;0.35;;;23.70;33.80;;;;;;4915096;28;44807;-84
2024/01/04 05:57:07;;;;;;;0.90;0.40;;;23.70;33.80;;;;;;4930668;28;45615;-84
2024/01/04 05:59:33;;;;;;;0.40;0.28;;;23.70;33.80;;;;;;4935996;28;47340;-83
2024/01/04 06:01:59;;;;;;;0.63;0.30;;;23.70;33.80;;;;;;4921980;28;45767;-83
2024/01/04 06:04:26;;;;;;;0.45;0.30;;;23.70;33.80;;;;;;4923406;28;45931;-84
2024/01/04 06:06:53;;;;;;;0.50;0.30;;;23.70;33.80;;;;;;4913754;28;45486;-82
2024/01/04 06:09:20;;;;;;;0.38;0.20;;;23.70;33.80;;;;;;4916372;28;46981;-84
2024/01/04 06:11:47;;;;;;;0.52;0.30;;;23.70;33.80;;;;;;4913238;28;45223;-83
2024/01/04 06:14:13;;;;;;;0.68;0.35;;;23.70;33.90;;;;;;4932992;28;45410;-83
2024/01/04 06:16:39;;;;;;;1.25;0.43;;;23.70;33.90;;;;;;4906044;28;45092;-83
2024/01/04 06:19:06;;;;;;;0.30;0.20;;;23.70;34.30;;;;;;4896038;28;48271;-83
2024/01/04 06:21:31;;;;;;;0.80;0.40;;;23.60;33.80;;;;;;4930723;28;44726;-84
2024/01/04 06:23:57;;;;;;;0.57;0.30;;;23.60;33.90;;;;;;4904875;28;45604;-84
2024/01/04 06:26:24;;;;;;;0.40;0.20;;;23.60;33.90;;;;;;4934080;28;45889;-84
2024/01/04 06:28:51;;;;;;;0.33;0.20;;;23.60;33.90;;;;;;4922214;28;45668;-82
2024/01/04 06:31:17;;;;;;;0.85;0.20;;;23.60;33.90;;;;;;4911817;28;45490;-84
2024/01/04 06:33:42;;;;;;;0.40;0.20;;;23.60;33.90;;;;;;4922614;28;45292;-84
2024/01/04 06:36:08;;;;;;;0.85;0.40;;;23.60;33.90;;;;;;4895163;28;45232;-82
2024/01/04 06:38:37;;;;;;;0.50;0.20;;;23.60;33.90;;;;;;4939903;28;46636;-83
2024/01/04 06:41:03;;;;;;;0.50;0.30;;;23.60;33.90;;;;;;4905963;28;45157;-84
2024/01/04 06:43:30;;;;;;;0.30;0.20;;;23.60;33.90;;;;;;4935287;28;45651;-84
2024/01/04 06:45:56;;;;;;;0.47;0.20;;;23.60;33.90;;;;;;4939624;28;45578;-84
2024/01/04 06:48:22;;;;;;;0.75;0.30;;;23.60;33.90;;;;;;4918626;28;46350;-84
2024/01/04 06:50:48;;;;;;;0.80;0.30;;;23.60;33.90;;;;;;4930499;28;44950;-83
2024/01/04 06:53:17;;;;;;;0.43;0.20;;;23.60;33.90;;;;;;4953495;28;44978;-82
2024/01/04 06:55:43;;;;;;;0.93;0.38;;;23.60;33.90;;;;;;4939943;28;45297;-84
2024/01/04 06:58:09;;;;;;;0.63;0.30;;;23.60;33.90;;;;;;4929189;28;46072;-83
2024/01/04 07:00:35;;;;;;;0.75;0.35;;;23.60;33.90;;;;;;4933308;28;45233;-84
2024/01/04 07:03:02;;;;;;;0.63;0.20;;;23.50;33.90;;;;;;4898877;28;45643;-84
2024/01/04 07:05:28;;;;;;;0.63;0.13;;;23.60;34.00;;;;;;4935205;28;45378;-84
2024/01/04 07:07:54;;;;;;;0.77;0.37;;;23.60;34.00;;;;;;4932213;28;46345;-84
2024/01/04 07:10:19;;;;;;;0.20;0.10;;;23.60;34.00;;;;;;4919865;28;46158;-84
2024/01/04 07:12:47;;;;;;;0.47;0.30;;;23.50;34.00;;;;;;4932057;28;44664;-84
2024/01/04 07:15:12;;;;;;;0.82;0.22;;;23.50;34.00;;;;;;4935337;28;44958;-82
2024/01/04 07:17:39;;;;;;;0.82;0.20;;;23.50;34.00;;;;;;4904048;28;45554;-83
2024/01/04 07:20:07;;;;;;;0.80;0.30;;;23.50;34.00;;;;;;4930361;28;44681;-84
2024/01/04 07:22:33;;;;;;;0.55;0.28;;;23.50;34.00;;;;;;4926793;28;44838;-84
2024/01/04 07:24:59;;;;;;;0.77;0.30;;;23.60;34.00;;;;;;4939914;28;45244;-84
2024/01/04 07:27:27;;;;;;;0.52;0.22;;;23.50;34.00;;;;;;4937024;28;45499;-83
2024/01/04 07:29:53;;;;;;;0.50;0.30;;;23.50;34.00;;;;;;4910332;28;45584;-84
2024/01/04 07:32:19;;;;;;;0.70;0.20;;;23.50;34.00;;;;;;4884173;28;45373;-83
2024/01/04 07:34:46;;;;;;;0.50;0.30;;;23.50;34.10;;;;;;4909564;28;45123;-84
2024/01/04 07:37:13;;;;;;;0.45;0.20;;;23.50;34.00;;;;;;4925355;28;45392;-83
2024/01/04 07:39:41;;;;;;;0.80;0.30;;;23.50;34.10;;;;;;4949329;28;45060;-84
2024/01/04 07:42:08;;;;;;;0.65;0.30;;;23.50;34.10;;;;;;4933287;28;45437;-83
2024/01/04 07:44:34;;;;;;;0.40;0.30;;;23.50;34.10;;;;;;4913364;28;45082;-84
2024/01/04 07:47:00;;;;;;;0.50;0.30;;;23.50;34.10;;;;;;4950045;28;46534;-84
2024/01/04 07:49:26;;;;;;;0.90;0.20;;;23.50;34.10;;;;;;4938404;28;45320;-83
2024/01/04 07:51:52;;;;;;;0.45;0.30;;;23.50;34.20;;;;;;4919042;28;45386;-85
2024/01/04 07:54:22;;;;;;;0.40;0.28;;;23.50;34.10;;;;;;4921518;28;45654;-84
2024/01/04 07:56:48;;;;;;;0.32;0.20;;;23.50;34.20;;;;;;4941831;28;45606;-83
2024/01/04 07:59:15;;;;;;;0.60;0.30;;;23.50;34.20;;;;;;4930708;28;45044;-84
2024/01/04 08:01:41;;;;;;;0.68;0.25;;;23.40;34.10;;;;;;4907290;28;45583;-83
2024/01/04 08:04:07;;;;;;;0.90;0.40;;;23.40;34.10;;;;;;4936414;28;45002;-84
2024/01/04 08:06:33;;;;;;;1.20;0.32;;;23.50;34.20;;;;;;4955640;28;45966;-83
2024/01/04 08:08:59;;;;;;;0.43;0.20;;;23.40;34.20;;;;;;4939264;28;45395;-84
2024/01/04 08:11:24;;;;;;;0.38;0.20;;;23.40;34.20;;;;;;4912588;28;45740;-83
2024/01/04 08:13:51;;;;;;;0.30;0.20;;;23.40;34.20;;;;;;4917728;28;45422;-84
2024/01/04 08:16:17;;;;;;;0.60;0.20;;;23.40;34.20;;;;;;4934646;28;46472;-84
2024/01/04 08:18:43;;;;;;;0.32;0.22;;;23.50;34.30;;;;;;4936100;28;45309;-84
2024/01/04 08:21:10;;;;;;;0.70;0.40;;;23.40;34.20;;;;;;4947321;28;45480;-84
2024/01/04 08:23:35;;;;;;;0.40;0.20;;;23.40;34.20;;;;;;4920732;28;45414;-84
2024/01/04 08:26:05;;;;;;;0.40;0.30;;;23.40;34.20;;;;;;4918805;28;46165;-83
2024/01/04 08:28:30;;;;;;;1.70;0.57;;;23.40;34.20;;;;;;4921150;28;45447;-84
2024/01/04 08:30:56;;;;;;;0.95;0.45;;;23.40;34.20;;;;;;4917617;28;45685;-83
2024/01/04 08:33:23;;;;;;;0.90;0.52;;;23.40;34.30;;;;;;4905617;28;45479;-84
2024/01/04 08:35:48;;;;;;;0.60;0.30;;;23.40;34.30;;;;;;4941898;28;45920;-84
2024/01/04 08:38:14;;;;;;;0.60;0.40;;;23.30;34.20;;;;;;4957025;28;44833;-84
2024/01/04 08:40:40;;;;;;;1.15;0.40;;;23.40;34.20;;;;;;4916450;28;45320;-84
2024/01/04 08:43:06;;;;;;;0.50;0.40;;;23.40;34.20;;;;;;4920176;28;45848;-83
2024/01/04 08:45:33;;;;;;;0.68;0.43;;;23.30;34.20;;;;;;4913271;28;46219;-84
2024/01/04 08:47:58;;;;;;;0.40;0.40;;;23.30;34.20;;;;;;4922194;28;45058;-83
2024/01/04 08:50:24;;;;;;;0.75;0.50;;;23.40;34.30;;;;;;4918381;28;45317;-84
2024/01/04 08:52:50;;;;;;;0.40;0.40;;;23.30;34.30;;;;;;4954546;28;45250;-84
2024/01/04 08:55:19;;;;;;;0.50;0.40;;;23.30;34.30;;;;;;4930539;28;46171;-84
2024/01/04 08:57:45;;;;;;;0.50;0.40;;;23.30;34.20;;;;;;4922964;28;45483;-84
2024/01/04 09:00:11;;;;;;;0.60;0.37;;;23.30;34.30;;;;;;4923800;28;45262;-84
2024/01/04 09:02:37;;;;;;;0.95;0.47;;;23.40;34.30;;;;;;4904851;28;45470;-83
2024/01/04 09:05:04;;;;;;;0.35;0.30;;;23.30;34.30;;;;;;4895629;28;46863;-82
2024/01/04 09:07:30;;;;;;;0.57;0.30;;;23.30;34.30;;;;;;4906800;28;45323;-84
2024/01/04 09:09:55;;;;;;;0.57;0.43;;;23.30;34.30;;;;;;4942736;28;45542;-84
2024/01/04 09:12:21;;;;;;;0.67;0.40;;;23.30;34.40;;;;;;4919937;28;46238;-84
2024/01/04 09:14:47;;;;;;;0.90;0.40;;;23.30;34.40;;;;;;4927154;28;46267;-84
2024/01/04 09:17:13;;;;;;;0.50;0.30;;;23.30;34.40;;;;;;4922262;28;45461;-84
2024/01/04 09:19:40;;;;;;;0.90;0.43;;;23.30;34.40;;;;;;4914258;28;45568;-84
2024/01/04 09:22:07;;;;;;;1.00;0.30;;;23.30;34.40;;;;;;4919987;28;45385;-84
2024/01/04 09:24:32;;;;;;;1.27;0.50;;;23.30;34.40;;;;;;4920804;28;46145;-83
2024/01/04 09:26:58;;;;;;;0.90;0.40;;;23.30;34.40;;;;;;4919199;28;45348;-84
2024/01/04 09:29:24;;;;;;;0.40;0.30;;;23.30;34.40;;;;;;4936400;28;45760;-84
2024/01/04 09:31:50;;;;;;;0.50;0.30;;;23.30;34.50;;;;;;4950735;28;45266;-84
2024/01/04 09:34:17;;;;;;;0.43;0.30;;;23.30;34.40;;;;;;4936850;28;46312;-84
2024/01/04 09:36:43;;;;;;;0.47;0.27;;;23.30;34.40;;;;;;4949806;28;45548;-84
2024/01/04 09:39:14;;;;;;;0.60;0.40;;;23.20;34.40;;;;;;4916586;28;45785;-84
2024/01/04 09:41:44;;;;;;;0.33;0.20;;;23.20;34.40;;;;;;4932331;28;45264;-84
2024/01/04 09:44:11;;;;;;;0.40;0.30;;;23.20;34.50;;;;;;4923825;28;46392;-83
2024/01/04 09:46:37;;;;;;;0.40;0.20;;;23.20;34.50;;;;;;4919278;28;45321;-83
2024/01/04 09:49:04;;;;;;;1.02;0.22;;;23.20;34.50;;;;;;4939966;28;44944;-84
2024/01/04 09:51:33;;;;;;;0.60;0.40;;;23.20;34.50;;;;;;4939427;28;45878;-83
2024/01/04 09:53:59;;;;;;;0.32;0.25;;;23.20;34.50;;;;;;4919712;28;46208;-83
2024/01/04 09:56:26;;;;;;;0.63;0.30;;;23.20;34.50;;;;;;4903818;28;45242;-84
2024/01/04 09:58:52;;;;;;;0.25;0.25;;;23.20;34.50;;;;;;4926886;28;45451;-83
2024/01/04 10:01:25;;;;;;;0.82;0.50;;;23.20;34.50;;;;;;4925936;28;45058;-84
2024/01/04 10:03:52;;;;;;;0.47;0.30;;;23.20;34.50;;;;;;4924474;28;46020;-83
2024/01/04 10:06:24;;;;;;;0.70;0.40;;;23.20;34.50;;;;;;4933543;28;44810;-84
2024/01/04 10:08:55;;;;;;;0.80;0.40;;;23.20;34.50;;;;;;4937189;28;45620;-84
2024/01/04 10:11:25;;;;;;;0.30;0.30;;;23.20;34.50;;;;;;4944639;28;46124;-83
2024/01/04 10:13:50;;;;;;;0.70;0.40;;;23.20;34.50;;;;;;4907837;28;46542;-84
2024/01/04 10:16:17;;;;;;;0.70;0.30;;;23.10;34.50;;;;;;4920155;28;45104;-85
2024/01/04 10:18:43;;;;;;;0.30;0.30;;;23.20;34.60;;;;;;4941495;28;44999;-84
2024/01/04 10:21:10;;;;;;;0.43;0.40;;;23.10;34.50;;;;;;4946293;28;45027;-84
2024/01/04 10:23:36;;;;;;;0.38;0.30;;;23.20;34.50;;;;;;4905988;28;46536;-84
2024/01/04 10:26:13;;;;;;;0.55;0.35;;;23.20;34.50;;;;;;4935139;28;45313;-84
2024/01/04 10:28:39;;;;;;;1.00;0.50;;;23.20;34.50;;;;;;4893649;28;45244;-84
2024/01/04 10:31:08;;;;;;;0.75;0.40;;;23.20;34.60;;;;;;4926274;28;45007;-84
2024/01/04 10:33:35;;;;;;;0.50;0.40;;;23.10;34.50;;;;;;4931485;28;46386;-84
2024/01/04 10:36:32;;;;;;;0.80;0.40;;;23.10;34.50;;;;;;4899260;28;45422;-84
2024/01/04 10:38:59;;;;;;;0.73;0.30;;;23.10;34.60;;;;;;4933604;28;45236;-84
2024/01/04 10:41:28;;;;;;;0.70;0.40;;;23.10;34.60;;;;;;4906036;28;45368;-85
2024/01/04 10:44:05;;;;;;;0.70;0.40;;;23.10;34.60;;;;;;4908202;28;46119;-85
2024/01/04 10:46:34;;;;;;;0.60;0.40;;;23.10;34.60;;;;;;4918951;28;45650;-82
2024/01/04 10:49:02;;;;;;;0.88;0.40;;;23.10;34.60;;;;;;4950035;28;45389;-84
2024/01/04 10:51:29;;;;;;;0.60;0.40;;;23.10;34.60;;;;;;4920998;28;45367;-85
2024/01/04 10:53:56;;;;;;;0.85;0.40;;;23.10;34.70;;;;;;4921246;28;46488;-84
2024/01/04 10:56:23;;;;;;;0.88;0.47;;;23.10;34.70;;;;;;4889277;28;45046;-84
2024/01/04 10:58:49;;;;;;;0.90;0.40;;;23.10;34.70;;;;;;4939814;28;45561;-85
2024/01/04 11:01:15;;;;;;;1.05;0.40;;;23.00;34.70;;;;;;4928688;28;45999;-84
2024/01/04 11:03:42;;;;;;;0.95;0.40;;;23.00;34.70;;;;;;4915484;28;46306;-84
2024/01/04 11:06:07;;;;;;;0.60;0.50;;;23.00;34.70;;;;;;4914934;28;45233;-84
2024/01/04 11:08:33;;;;;;;1.15;0.57;;;23.00;34.70;;;;;;4936572;28;45316;-84
2024/01/04 11:10:59;;;;;;;0.85;0.63;;;23.10;34.80;;;;;;4936132;28;45451;-84
2024/01/04 11:13:25;;;;;;;1.52;0.63;;;23.00;34.80;;;;;;4917381;28;47427;-84
2024/01/04 11:15:53;;;;;;;1.20;0.70;;;23.00;34.70;;;;;;4920522;28;45540;-82
2024/01/04 11:18:52;;;;;;;1.23;0.60;;;23.00;34.80;;;;;;4924345;28;45167;-83
2024/01/04 11:21:31;;;;;;;1.47;0.60;;;23.00;34.90;;;;;;4927066;28;44980;-84
2024/01/04 11:24:05;;;;;;;1.08;0.50;;;23.00;35.00;;;;;;4959866;28;45461;-84
2024/01/04 11:26:49;;;;;;;1.67;0.70;;;23.00;34.90;;;;;;4944403;28;45407;-84
2024/01/04 11:29:15;;;;;;;1.58;0.70;;;23.00;34.90;;;;;;4920859;28;45156;-85
2024/01/04 11:31:42;;;;;;;1.15;0.70;;;22.90;34.90;;;;;;4918131;28;45105;-83
2024/01/04 11:34:11;;;;;;;1.23;0.70;;;22.90;34.90;;;;;;4918793;28;46920;-84
2024/01/04 11:36:37;;;;;;;2.42;0.85;;;22.90;34.90;;;;;;4923561;28;45748;-84
2024/01/04 11:39:03;;;;;;;1.63;0.77;;;22.90;35.00;;;;;;4962538;28;45319;-83
2024/01/04 11:41:55;;;;;;;1.50;0.77;;;22.90;34.90;;;;;;4939407;28;45451;-83
2024/01/04 11:44:22;;;;;;;2.10;0.80;;;22.90;34.90;;;;;;4932073;28;47621;-83
2024/01/04 11:46:57;;;;;;;1.85;0.88;;;22.90;34.90;;;;;;4898328;28;45603;-84
2024/01/04 11:49:22;;;;;;;1.70;0.70;;;22.90;34.90;;;;;;4920833;28;44814;-84
2024/01/04 11:51:49;;;;;;;2.05;0.82;;;22.90;34.90;;;;;;4957799;28;45015;-84
2024/01/04 11:54:17;;;;;;;2.23;0.83;;;22.90;34.90;;;;;;4947895;28;46368;-84
2024/01/04 11:56:43;;;;;;;1.63;0.77;;;22.90;34.90;;;;;;4918702;28;45490;-84
2024/01/04 11:59:09;;;;;;;1.67;0.88;;;22.90;35.00;;;;;;4907577;28;45686;-84
2024/01/04 12:01:43;;;;;;;1.88;0.80;;;22.90;34.90;;;;;;4892510;28;45579;-84
2024/01/04 12:04:15;;;;;;;2.25;0.82;;;22.90;35.00;;;;;;4919209;28;46800;-84
2024/01/04 12:06:43;;;;;;;2.23;0.80;;;22.90;35.00;;;;;;4933983;28;45583;-84
2024/01/04 12:09:10;;;;;;;2.10;0.80;;;22.90;35.00;;;;;;4916509;28;45103;-83
2024/01/04 12:11:36;;;;;;;1.90;0.85;;;22.90;35.00;;;;;;4924431;28;45200;-84
2024/01/04 12:14:03;;;;;;;2.17;0.95;;;22.90;35.00;;;;;;4904120;28;46225;-84
2024/01/04 12:16:30;;;;;;;2.15;0.80;;;22.90;35.00;;;;;;4918548;28;44906;-82
2024/01/04 12:18:57;;;;;;;2.05;0.80;;;22.90;35.00;;;;;;4906767;28;45463;-84
2024/01/04 12:21:46;;;;;;;3.85;0.98;;;22.80;34.90;;;;;;4931164;28;45530;-84
2024/01/04 12:24:12;;;;;;;2.20;0.87;;;22.90;35.00;;;;;;4910164;28;46025;-82
2024/01/04 12:26:38;;;;;;;2.58;1.00;;;22.90;35.00;;;;;;4933696;28;45001;-82
2024/01/04 12:29:05;;;;;;;2.50;1.13;;;22.90;35.00;;;;;;4901301;28;44915;-84
2024/01/04 12:31:32;;;;;;;3.40;1.35;;;22.80;35.00;;;;;;4923690;28;46391;-84
2024/01/04 12:33:58;;;;;;;2.72;1.20;;;22.90;35.00;;;;;;4918447;28;46198;-82
2024/01/04 12:36:23;;;;;;;3.85;1.30;;;22.90;35.00;;;;;;4944798;28;45496;-84
2024/01/04 12:39:31;;;;;;;3.03;1.27;;;22.80;35.00;;;;;;4913519;28;45827;-83
2024/01/04 12:41:57;;;;;;;2.33;1.10;;;22.80;35.00;;;;;;4911003;28;45505;-84
2024/01/04 12:44:24;;;;;;;2.80;1.25;;;22.80;35.00;;;;;;4946748;28;45869;-84
2024/01/04 12:46:50;;;;;;;2.70;1.40;;;22.80;35.00;;;;;;4922526;28;45159;-84
2024/01/04 12:49:16;;;;;;;3.00;1.17;;;22.80;35.00;;;;;;4918619;28;45060;-83
2024/01/04 12:51:42;;;;;;;3.87;1.33;;;22.80;35.00;;;;;;4902271;28;46635;-83
2024/01/04 12:54:08;;;;;;;3.17;1.42;;;22.80;35.00;;;;;;4931155;28;46321;-84
2024/01/04 12:56:35;;;;;;;3.50;1.42;;;22.80;35.00;;;;;;4955623;28;45212;-82
2024/01/04 12:59:03;;;;;;;3.38;1.40;;;22.80;35.00;;;;;;4914717;28;44761;-82
2024/01/04 13:01:29;;;;;;;3.72;1.38;;;22.80;35.00;;;;;;4922518;28;45024;-83
2024/01/04 13:03:56;;;;;;;3.55;1.50;;;22.80;35.00;;;;;;4915009;28;46355;-84
2024/01/04 13:06:22;;;;;;;3.45;1.67;;;22.80;35.00;;;;;;4896043;28;45265;-83
2024/01/04 13:08:50;;;;;;;3.10;1.30;;;22.80;35.00;;;;;;4927899;28;46446;-84
2024/01/04 13:11:15;;;;;;;3.72;1.40;;;22.80;35.00;;;;;;4910204;28;45684;-84
2024/01/04 13:13:42;;;;;;;4.88;1.63;;;22.80;35.00;;;;;;4909932;28;45636;-84
2024/01/04 13:16:08;;;;;;;4.95;1.90;;;22.70;35.00;;;;;;4912026;28;45605;-84
2024/01/04 13:18:33;;;;;;;2.90;1.50;;;22.70;35.00;;;;;;4911084;28;44895;-84
2024/01/04 13:20:59;;;;;;;3.17;1.80;;;22.80;35.00;;;;;;4926064;28;45234;-84
2024/01/04 13:23:26;;;;;;;4.30;1.75;;;22.70;35.00;;;;;;4910396;28;46215;-84
2024/01/04 13:25:53;;;;;;;3.88;1.80;;;22.70;35.00;;;;;;4893788;28;46386;-84
2024/01/04 13:28:19;;;;;;;4.00;1.60;;;22.70;35.00;;;;;;4946764;28;45586;-84
2024/01/04 13:30:45;;;;;;;3.72;1.75;;;22.70;35.00;;;;;;4920180;28;46341;-84
2024/01/04 13:33:10;;;;;;;4.83;1.77;;;22.70;35.10;;;;;;4901206;28;46245;-84
2024/01/04 13:35:36;;;;;;;3.17;1.60;;;22.70;35.00;;;;;;4912978;28;45664;-84
2024/01/04 13:38:03;;;;;;;3.17;1.50;;;22.70;35.00;;;;;;4930514;28;45992;-84
2024/01/04 13:40:30;;;;;;;3.80;1.60;;;22.70;35.00;;;;;;4941918;28;45607;-82
2024/01/04 13:42:56;;;;;;;3.47;1.70;;;22.70;35.00;;;;;;4942550;28;45647;-84
2024/01/04 13:45:22;;;;;;;3.67;1.45;;;22.70;35.00;;;;;;4940773;28;45283;-86
2024/01/04 13:47:49;;;;;;;3.40;1.70;;;22.70;35.00;;;;;;4912140;28;44929;-84
2024/01/04 13:50:15;;;;;;;5.18;1.90;;;22.70;35.00;;;;;;4930440;28;45433;-84
2024/01/04 13:52:40;;;;;;;4.40;1.67;;;22.70;35.00;;;;;;4941388;28;47246;-85
2024/01/04 13:55:08;;;;;;;4.00;1.70;;;22.70;35.00;;;;;;4924333;28;45973;-83
2024/01/04 13:57:34;;;;;;;3.35;1.67;;;22.70;35.00;;;;;;4910375;28;45095;-84
2024/01/04 13:59:59;;;;;;;3.60;1.40;;;22.70;35.00;;;;;;4931832;28;46170;-84
2024/01/04 14:02:26;;;;;;;3.57;1.53;;;22.70;35.00;;;;;;4868876;28;46354;-84
2024/01/04 14:04:52;;;;;;;4.00;1.70;;;22.70;35.00;;;;;;4913809;28;45532;-84
2024/01/04 14:07:18;;;;;;;3.25;1.65;;;22.70;35.00;;;;;;4926951;28;45883;-86
2024/01/04 14:09:44;;;;;;;4.40;1.90;;;22.70;35.00;;;;;;4929362;28;45498;-84
2024/01/04 14:12:11;;;;;;;4.93;1.80;;;22.70;35.00;;;;;;4911343;28;46002;-81
2024/01/04 14:14:37;;;;;;;3.35;1.75;;;22.70;35.00;;;;;;4925343;28;46257;-83
2024/01/04 14:17:03;;;;;;;3.88;1.50;;;22.70;35.00;;;;;;4927606;28;44717;-85
2024/01/04 14:19:29;;;;;;;4.27;1.67;;;22.70;35.00;;;;;;4896745;28;45750;-84
2024/01/04 14:21:54;;;;;;;4.17;1.60;;;22.70;35.10;;;;;;4925228;28;46395;-84
2024/01/04 14:24:21;;;;;;;3.50;1.50;;;22.70;35.00;;;;;;4926665;28;44906;-84
2024/01/04 14:26:48;;;;;;;3.30;1.55;;;22.70;35.00;;;;;;4903348;28;45405;-84
2024/01/04 14:29:14;;;;;;;3.05;1.50;;;22.70;35.00;;;;;;4930086;28;45324;-85
2024/01/04 14:31:39;;;;;;;3.17;1.40;;;22.70;35.00;;;;;;4936987;28;46730;-84
2024/01/04 14:34:05;;;;;;;3.67;1.55;;;22.70;35.00;;;;;;4897316;28;45267;-83
2024/01/04 14:36:31;;;;;;;3.50;1.40;;;22.70;35.60;;;;;;4941498;28;45793;-84
2024/01/04 14:38:57;;;;;;;3.50;1.63;;;22.70;35.00;;;;;;4915217;28;45114;-85
2024/01/04 14:41:23;;;;;;;2.92;1.40;;;22.70;35.00;;;;;;4913723;28;45885;-85
2024/01/04 14:43:48;;;;;;;3.88;1.67;;;22.60;34.90;;;;;;4914371;28;45694;-84
2024/01/04 14:46:25;;;;;;;4.37;1.80;;;22.70;34.90;;;;;;4923832;28;45030;-86
2024/01/04 14:48:50;;;;;;;3.47;1.40;;;22.70;35.00;;;;;;4940149;28;45647;-85
2024/01/04 14:51:21;;;;;;;3.07;1.40;;;22.70;34.90;;;;;;4942575;28;46176;-84
2024/01/04 14:53:46;;;;;;;3.08;1.40;;;22.70;35.00;;;;;;4904556;28;44703;-84
2024/01/04 14:56:13;;;;;;;3.22;1.30;;;22.70;35.00;;;;;;4905172;28;45628;-83
2024/01/04 14:58:39;;;;;;;3.00;1.45;;;22.60;34.90;;;;;;4890678;28;45521;-84
2024/01/04 15:01:05;;;;;;;3.17;1.40;;;22.60;34.90;;;;;;4909484;28;46260;-84
2024/01/04 15:03:32;;;;;;;2.87;1.40;;;22.60;34.90;;;;;;4924979;28;46312;-84
2024/01/04 15:05:58;;;;;;;4.03;1.73;;;22.60;35.00;;;;;;4916913;28;45321;-85
2024/01/04 15:08:26;;;;;;;3.38;1.55;;;22.60;35.00;;;;;;4923264;28;45408;-84
2024/01/04 15:10:51;;;;;;;3.23;1.43;;;22.60;35.00;;;;;;4905066;28;46264;-83
2024/01/04 15:13:18;;;;;;;3.27;1.60;;;22.60;35.00;;;;;;4895905;28;46442;-84
2024/01/04 15:15:43;;;;;;;3.10;1.48;;;22.60;35.00;;;;;;4901258;28;45921;-84
2024/01/04 15:18:09;;;;;;;3.27;1.47;;;22.60;35.00;;;;;;4891483;28;45677;-84
2024/01/04 15:20:35;;;;;;;4.00;1.60;;;22.60;35.00;;;;;;4899791;28;45664;-84
2024/01/04 15:23:02;;;;;;;3.67;1.50;;;22.60;35.00;;;;;;4893596;28;45758;-84
2024/01/04 15:25:28;;;;;;;3.47;1.63;;;22.60;35.00;;;;;;4926577;28;45731;-84
2024/01/04 15:27:54;;;;;;;3.47;1.70;;;22.50;34.90;;;;;;4934060;28;45771;-83
2024/01/04 15:30:21;;;;;;;3.38;1.50;;;22.60;35.60;;;;;;4911030;28;46230;-84
2024/01/04 15:32:49;;;;;;;2.72;1.42;;;22.60;35.00;;;;;;4912044;28;45773;-83
2024/01/04 15:35:15;;;;;;;3.60;1.55;;;22.60;35.00;;;;;;4943239;28;45537;-84
2024/01/04 15:37:41;;;;;;;4.03;1.83;;;22.60;35.00;;;;;;4899478;28;46242;-84
2024/01/04 15:40:09;;;;;;;3.17;1.30;;;22.50;34.90;;;;;;4938912;28;46024;-83
2024/01/04 15:42:35;;;;;;;3.40;1.80;;;22.50;34.90;;;;;;4929367;28;45840;-84
2024/01/04 15:45:00;;;;;;;2.90;1.60;;;22.50;34.90;;;;;;4915459;28;45366;-85
2024/01/04 15:47:28;;;;;;;3.97;1.55;;;22.50;34.90;;;;;;4925026;28;45326;-84
2024/01/04 15:49:53;;;;;;;4.53;2.10;;;22.50;34.90;;;;;;4930602;28;46443;-84
2024/01/04 15:52:19;;;;;;;3.67;1.80;;;22.50;34.90;;;;;;4928975;28;45744;-82
2024/01/04 15:54:45;;;;;;;4.10;1.75;;;22.50;34.90;;;;;;4878320;28;45305;-83
2024/01/04 15:57:10;;;;;;;3.55;1.77;;;22.50;34.90;;;;;;4909853;28;45088;-83
2024/01/04 15:59:36;;;;;;;3.75;1.60;;;22.50;34.90;;;;;;4915485;28;48412;-84
2024/01/04 16:02:02;;;;;;;3.80;1.60;;;22.50;34.80;;;;;;4908394;28;44802;-84
2024/01/04 16:04:28;;;;;;;3.03;1.67;;;22.50;34.80;;;;;;4946101;28;45259;-84
2024/01/04 16:06:54;;;;;;;3.33;1.63;;;22.50;34.80;;;;;;4922458;28;45633;-83
2024/01/04 16:09:20;;;;;;;3.33;1.60;;;22.50;34.70;;;;;;4914754;28;45982;-84
2024/01/04 16:11:46;;;;;;;3.15;1.75;;;22.50;34.70;;;;;;4935702;28;45284;-84
2024/01/04 16:14:12;;;;;;;3.53;1.70;;;22.50;34.70;;;;;;4941749;28;45331;-84
2024/01/04 16:16:38;;;;;;;3.65;1.73;;;22.60;34.80;;;;;;4906439;28;45839;-83
2024/01/04 16:19:03;;;;;;;3.60;1.58;;;22.60;34.70;;;;;;4912550;28;46426;-83
2024/01/04 16:21:29;;;;;;;3.50;1.80;;;22.60;34.70;;;;;;4924531;28;45556;-82
2024/01/04 16:23:56;;;;;;;3.40;1.63;;;22.60;34.70;;;;;;4945713;28;45219;-84
2024/01/04 16:26:22;;;;;;;3.50;1.58;;;22.60;34.70;;;;;;4924231;28;46268;-80
2024/01/04 16:28:47;;;;;;;3.83;2.05;;;22.70;34.60;;;;;;4928842;28;45802;-83
2024/01/04 16:31:13;;;;;;;4.05;2.08;;;22.70;34.60;;;;;;4903318;28;45490;-83
2024/01/04 16:33:39;;;;;;;4.80;2.00;;;22.70;34.60;;;;;;4944140;28;44976;-83
2024/01/04 16:36:09;;;;;;;3.55;1.90;;;22.70;34.60;;;;;;4940674;28;45196;-84
2024/01/04 16:38:35;;;;;;;3.90;1.95;;;22.70;34.60;;;;;;4912679;28;45592;-83
2024/01/04 16:41:01;;;;;;;4.22;1.88;;;22.70;34.50;;;;;;4924056;28;45797;-84
2024/01/04 16:43:27;;;;;;;3.87;1.90;;;22.80;34.60;;;;;;4909211;28;46010;-84
2024/01/04 16:45:55;;;;;;;4.82;2.10;;;22.80;34.50;;;;;;4915314;28;45812;-83
2024/01/04 16:48:21;;;;;;;4.05;1.95;;;22.80;34.50;;;;;;4904260;28;46135;-84